createdAt,value
2022-09-23T00:01:12.041Z,101660.31
2022-09-23T00:03:42.452Z,101660.34
2022-09-23T00:06:11.905Z,101646.22
2022-09-23T00:08:41.555Z,101638.28
2022-09-23T00:11:11.063Z,101624.19
2022-09-23T00:13:40.333Z,101610.97
2022-09-23T00:16:10.987Z,101628.59
2022-09-23T00:18:38.590Z,101624.28
2022-09-23T00:21:08.450Z,101633.09
2022-09-23T00:23:36.021Z,101634.88
2022-09-23T00:26:06.833Z,101673.63
2022-09-23T00:28:35.682Z,101671.81
2022-09-23T00:31:04.329Z,101680.53
2022-09-23T00:33:32.195Z,101670.72
2022-09-23T00:36:01.024Z,101660.03
2022-09-23T00:38:28.612Z,101627.38
2022-09-23T00:40:57.056Z,101603.66
2022-09-23T00:43:40.358Z,101564.13
2022-09-23T00:46:10.122Z,101551.09
2022-09-23T00:48:40.694Z,101545.00
2022-09-23T00:51:13.513Z,101527.56
2022-09-23T00:53:42.262Z,101521.47
2022-09-23T00:56:12.824Z,101542.66
2022-09-23T00:58:44.237Z,101570.00
2022-09-23T01:01:13.809Z,101567.44
2022-09-23T01:03:42.920Z,101595.69
2022-09-23T01:06:11.590Z,101607.16
2022-09-23T01:08:39.694Z,101639.69
2022-09-23T01:11:20.295Z,101637.91
2022-09-23T01:13:57.503Z,101637.94
2022-09-23T01:16:32.533Z,101626.53
2022-09-23T01:19:11.353Z,101649.41
2022-09-23T01:21:49.368Z,101653.72
2022-09-23T01:24:43.173Z,101618.41
2022-09-23T01:27:37.826Z,101593.66
2022-09-23T01:30:16.595Z,101576.94
2022-09-23T01:32:56.853Z,101569.00
2022-09-23T01:35:30.673Z,101576.97
2022-09-23T01:38:10.468Z,101547.03
2022-09-23T01:40:50.944Z,101555.97
2022-09-23T01:43:24.545Z,101519.13
2022-09-23T01:45:58.385Z,101555.31
2022-09-23T01:48:32.661Z,101569.50
2022-09-23T01:51:06.911Z,101574.84
2022-09-23T01:53:41.334Z,101560.00
2022-09-23T01:56:14.156Z,101540.75
2022-09-23T01:58:47.563Z,101539.09
2022-09-23T02:01:20.408Z,101544.44
2022-09-23T02:03:56.854Z,101569.13
2022-09-23T02:06:30.481Z,101597.34
2022-09-23T02:09:01.529Z,101624.63
2022-09-23T02:11:29.983Z,101645.75
2022-09-23T02:14:00.687Z,101648.44
2022-09-23T02:16:32.961Z,101654.59
2022-09-23T02:19:08.131Z,101665.13
2022-09-23T02:21:39.334Z,101665.13
2022-09-23T02:24:13.553Z,101684.47
2022-09-23T02:26:51.053Z,101662.44
2022-09-23T02:29:22.442Z,101661.56
2022-09-23T02:31:58.694Z,101663.34
2022-09-23T02:34:39.360Z,101661.63
2022-09-23T02:37:16.574Z,101679.19
2022-09-23T02:39:56.396Z,101655.41
2022-09-23T02:42:32.185Z,101649.25
2022-09-23T02:44:59.765Z,101647.53
2022-09-23T02:47:32.343Z,101639.63
2022-09-23T02:50:01.304Z,101595.72
2022-09-23T02:52:28.959Z,101579.03
2022-09-23T02:54:57.078Z,101564.13
2022-09-23T02:57:24.748Z,101542.19
2022-09-23T02:59:52.533Z,101522.03
2022-09-23T03:02:39.912Z,101493.97
2022-09-23T03:05:15.857Z,101487.88
2022-09-23T03:07:50.523Z,101554.72
2022-09-23T03:10:23.540Z,101560.88
2022-09-23T03:13:01.860Z,101551.25
2022-09-23T03:15:37.278Z,101548.66
2022-09-23T03:18:16.679Z,101546.06
2022-09-23T03:20:50.560Z,101540.78
2022-09-23T03:23:23.597Z,101539.09
2022-09-23T03:25:54.090Z,101529.44
2022-09-23T03:28:25.401Z,101515.41
2022-09-23T03:30:55.438Z,101534.75
2022-09-23T03:33:28.832Z,101544.47
2022-09-23T03:36:22.250Z,101560.31
2022-09-23T03:38:52.753Z,101582.28
2022-09-23T03:41:29.728Z,101572.63
2022-09-23T03:43:58.909Z,101592.84
2022-09-23T03:46:27.467Z,101599.91
2022-09-23T03:48:59.540Z,101563.91
2022-09-23T03:51:28.430Z,101549.81
2022-09-23T03:53:57.515Z,101565.66
2022-09-23T03:56:25.153Z,101563.06
2022-09-23T03:58:52.696Z,101560.44
2022-09-23T04:01:20.242Z,101569.25
2022-09-23T04:03:49.028Z,101586.84
2022-09-23T04:06:16.847Z,101530.63
2022-09-23T04:08:45.823Z,101506.91
2022-09-23T04:11:13.395Z,101521.03
2022-09-23T04:13:41.102Z,101550.00
2022-09-23T04:16:08.692Z,101593.06
2022-09-23T04:18:36.400Z,101610.66
2022-09-23T04:21:04.218Z,101644.91
2022-09-23T04:23:31.810Z,101652.81
2022-09-23T04:26:00.782Z,101649.25
2022-09-23T04:28:28.261Z,101669.44
2022-09-23T04:30:57.724Z,101678.25
2022-09-23T04:33:26.008Z,101636.00
2022-09-23T04:35:53.594Z,101609.66
2022-09-23T04:38:21.954Z,101590.34
2022-09-23T04:40:49.973Z,101616.69
2022-09-23T04:43:18.882Z,101616.72
2022-09-23T04:45:46.502Z,101626.41
2022-09-23T04:48:14.937Z,101627.31
2022-09-23T04:50:42.541Z,101620.28
2022-09-23T04:53:10.198Z,101614.13
2022-09-23T04:55:37.752Z,101629.03
2022-09-23T04:58:05.254Z,101615.88
2022-09-23T05:00:34.086Z,101594.75
2022-09-23T05:03:01.705Z,101584.22
2022-09-23T05:05:29.430Z,101584.19
2022-09-23T05:07:57.116Z,101592.09
2022-09-23T05:10:24.782Z,101593.81
2022-09-23T05:12:56.919Z,101597.31
2022-09-23T05:15:24.962Z,101617.53
2022-09-23T05:17:53.856Z,101628.91
2022-09-23T05:20:21.567Z,101654.38
2022-09-23T05:22:49.101Z,101677.19
2022-09-23T05:25:16.821Z,101683.28
2022-09-23T05:27:44.331Z,101683.19
2022-09-23T05:30:12.403Z,101693.66
2022-09-23T05:32:39.869Z,101698.84
2022-09-23T05:35:09.572Z,101660.03
2022-09-23T05:37:38.899Z,101628.25
2022-09-23T05:40:07.206Z,101612.31
2022-09-23T05:42:35.180Z,101618.31
2022-09-23T05:45:02.705Z,101606.72
2022-09-23T05:47:30.221Z,101615.31
2022-09-23T05:50:00.323Z,101636.16
2022-09-23T05:52:29.790Z,101618.97
2022-09-23T05:54:57.273Z,101647.09
2022-09-23T05:57:24.853Z,101585.75
2022-09-23T05:59:52.429Z,101530.41
2022-09-23T06:02:20.060Z,101430.97
2022-09-23T06:04:47.617Z,101317.03
2022-09-23T06:07:15.147Z,101221.22
2022-09-23T06:09:44.038Z,101010.44
2022-09-23T06:12:12.361Z,100815.97
2022-09-23T06:14:39.942Z,100760.91
2022-09-23T06:17:07.695Z,100758.97
2022-09-23T06:19:35.203Z,100855.94
2022-09-23T06:22:02.759Z,100779.31
2022-09-23T06:24:31.603Z,100934.19
2022-09-23T06:27:00.959Z,100843.38
2022-09-23T06:29:29.894Z,100838.78
2022-09-23T06:31:59.702Z,100846.13
2022-09-23T06:34:27.369Z,100896.75
2022-09-23T06:36:55.617Z,100890.00
2022-09-23T06:39:23.269Z,100938.63
2022-09-23T06:41:50.760Z,100891.59
2022-09-23T06:44:19.755Z,100879.03
2022-09-23T06:46:47.332Z,100805.75
2022-09-23T06:49:14.893Z,100866.66
2022-09-23T06:51:42.723Z,100850.13
2022-09-23T06:54:10.975Z,100761.91
2022-09-23T06:56:39.737Z,100681.88
2022-09-23T06:59:08.526Z,100750.50
2022-09-23T07:01:37.971Z,100684.34
2022-09-23T07:04:07.308Z,100665.16
2022-09-23T07:06:35.351Z,100597.31
2022-09-23T07:09:03.217Z,100735.66
2022-09-23T07:11:30.795Z,100892.50
2022-09-23T07:13:58.490Z,100580.16
2022-09-23T07:16:26.420Z,100694.88
2022-09-23T07:18:55.911Z,100642.91
2022-09-23T07:21:24.113Z,100573.41
2022-09-23T07:23:51.679Z,100634.75
2022-09-23T07:26:20.841Z,100597.16
2022-09-23T07:28:48.363Z,100631.66
2022-09-23T07:31:30.070Z,100750.44
2022-09-23T07:34:06.295Z,100766.41
2022-09-23T07:36:37.087Z,100620.34
2022-09-23T07:39:05.163Z,100611.50
2022-09-23T07:41:34.451Z,100685.00
2022-09-23T07:44:02.941Z,100738.94
2022-09-23T07:46:33.305Z,100739.41
2022-09-23T07:49:02.083Z,100747.50
2022-09-23T07:51:36.312Z,100754.59
2022-09-23T07:54:07.817Z,100711.75
2022-09-23T07:56:37.046Z,100667.66
2022-09-23T07:59:04.997Z,100749.41
2022-09-23T08:01:35.846Z,100771.72
2022-09-23T08:04:05.611Z,100696.94
2022-09-23T08:06:35.096Z,100684.31
2022-09-23T08:09:02.883Z,100771.47
2022-09-23T08:11:31.255Z,100678.75
2022-09-23T08:13:59.007Z,100739.44
2022-09-23T08:16:26.855Z,100788.88
2022-09-23T08:18:54.406Z,100752.28
2022-09-23T08:21:22.914Z,100760.59
2022-09-23T08:23:51.987Z,100713.28
2022-09-23T08:26:22.095Z,100691.00
2022-09-23T08:28:50.641Z,100683.50
2022-09-23T08:31:18.318Z,100690.75
2022-09-23T08:33:45.876Z,100747.19
2022-09-23T08:36:13.734Z,100727.38
2022-09-23T08:38:41.270Z,100667.00
2022-09-23T08:41:17.413Z,100639.47
2022-09-23T08:43:50.055Z,100698.97
2022-09-23T08:46:25.466Z,100671.53
2022-09-23T08:48:54.487Z,100681.47
2022-09-23T08:51:29.641Z,100672.94
2022-09-23T08:53:58.950Z,100716.75
2022-09-23T08:56:30.290Z,100701.50
2022-09-23T08:59:05.104Z,100643.78
2022-09-23T09:01:39.104Z,100628.06
2022-09-23T09:04:17.325Z,100638.09
2022-09-23T09:06:54.117Z,100616.56
2022-09-23T09:09:27.595Z,100590.25
2022-09-23T09:12:03.342Z,100651.41
2022-09-23T09:14:38.020Z,100554.44
2022-09-23T09:17:08.929Z,100445.72
2022-09-23T09:19:52.998Z,100491.22
2022-09-23T09:22:23.106Z,100551.31
2022-09-23T09:24:51.245Z,100457.03
2022-09-23T09:27:20.266Z,100477.09
2022-09-23T09:29:54.563Z,100467.66
2022-09-23T09:32:34.166Z,100461.72
2022-09-23T09:35:09.571Z,100333.00
2022-09-23T09:37:46.782Z,100287.84
2022-09-23T09:40:16.321Z,100305.69
2022-09-23T09:42:48.891Z,100285.53
2022-09-23T09:45:26.199Z,100231.28
2022-09-23T09:48:05.516Z,100235.41
2022-09-23T09:50:45.329Z,100282.94
2022-09-23T09:53:18.972Z,99966.38
2022-09-23T09:55:48.318Z,100079.72
2022-09-23T09:58:17.276Z,100108.34
2022-09-23T10:00:46.032Z,100148.25
2022-09-23T10:03:26.382Z,100219.59
2022-09-23T10:05:57.571Z,100267.22
2022-09-23T10:08:29.185Z,100119.63
2022-09-23T10:11:03.002Z,100197.34
2022-09-23T10:13:32.763Z,100074.28
2022-09-23T10:16:03.866Z,100120.44
2022-09-23T10:18:35.773Z,99961.94
2022-09-23T10:21:09.091Z,100106.97
2022-09-23T10:23:41.673Z,100169.38
2022-09-23T10:26:12.048Z,100101.97
2022-09-23T10:28:48.868Z,100075.97
2022-09-23T10:31:24.483Z,100046.00
2022-09-23T10:33:54.562Z,100072.50
2022-09-23T10:36:22.710Z,100074.47
2022-09-23T10:38:55.118Z,99964.47
2022-09-23T10:41:54.499Z,100061.06
2022-09-23T10:44:51.861Z,100048.63
2022-09-23T10:47:35.049Z,100068.63
2022-09-23T10:50:23.065Z,99929.66
2022-09-23T10:53:03.815Z,99955.94
2022-09-23T10:56:00.048Z,100012.81
2022-09-23T10:58:56.194Z,100000.88
2022-09-23T11:01:39.584Z,99997.25
2022-09-23T11:04:46.915Z,100031.19
2022-09-23T11:07:24.099Z,100058.97
2022-09-23T11:10:35.233Z,99954.47
2022-09-23T11:13:16.810Z,99985.66
2022-09-23T11:15:59.040Z,99967.03
2022-09-23T11:18:51.617Z,100058.56
2022-09-23T11:21:46.496Z,99999.03
2022-09-23T11:24:32.544Z,99959.22
2022-09-23T11:27:08.819Z,100049.88
2022-09-23T11:30:02.638Z,99965.53
2022-09-23T11:35:42.633Z,99903.69
2022-09-23T11:38:14.056Z,99911.13
2022-09-23T11:40:46.507Z,99952.06
2022-09-23T11:43:21.691Z,99925.78
2022-09-23T11:45:58.592Z,99950.16
2022-09-23T11:48:33.426Z,99988.28
2022-09-23T11:51:05.938Z,99964.81
2022-09-23T11:53:41.630Z,99888.94
2022-09-23T11:56:26.853Z,99991.72
2022-09-23T11:59:05.809Z,99888.78
2022-09-23T12:01:40.245Z,99943.19
2022-09-23T12:04:21.169Z,99946.38
2022-09-23T12:06:58.142Z,99959.44
2022-09-23T12:09:56.871Z,100017.25
2022-09-23T12:12:28.378Z,99961.19
2022-09-23T12:15:02.484Z,99932.25
2022-09-23T12:17:54.431Z,99930.88
2022-09-23T12:20:45.132Z,99949.06
2022-09-23T12:23:29.412Z,99930.19
2022-09-23T12:26:00.645Z,99984.16
2022-09-23T12:28:33.601Z,99897.53
2022-09-23T12:31:04.143Z,99851.53
2022-09-23T12:33:33.540Z,99882.91
2022-09-23T12:36:04.838Z,99911.91
2022-09-23T12:38:38.121Z,99865.03
2022-09-23T12:41:25.455Z,99816.59
2022-09-23T12:43:55.354Z,99787.91
2022-09-23T12:46:26.154Z,99853.34
2022-09-23T12:49:04.322Z,99777.28
2022-09-23T12:51:34.044Z,99848.13
2022-09-23T12:54:24.200Z,99822.28
2022-09-23T12:57:06.506Z,99809.22
2022-09-23T12:59:59.179Z,99823.56
2022-09-23T13:02:34.572Z,99893.25
2022-09-23T13:05:32.171Z,99896.78
2022-09-23T13:08:04.182Z,99839.47
2022-09-23T13:10:35.838Z,99877.38
2022-09-23T13:13:03.898Z,99805.94
2022-09-23T13:15:34.897Z,99771.59
2022-09-23T13:18:39.391Z,99835.59
2022-09-23T13:21:17.698Z,99859.84
2022-09-23T13:24:18.047Z,99830.50
2022-09-23T13:26:48.151Z,99801.84
2022-09-23T13:29:21.235Z,99834.22
2022-09-23T13:31:49.271Z,99855.38
2022-09-23T13:34:22.278Z,99822.16
2022-09-23T13:36:50.235Z,99810.22
2022-09-23T13:39:24.528Z,99752.03
2022-09-23T13:41:54.830Z,99796.19
2022-09-23T13:44:23.596Z,99828.72
2022-09-23T13:46:54.807Z,99878.00
2022-09-23T13:49:24.542Z,99873.06
2022-09-23T13:51:53.295Z,99798.75
2022-09-23T13:54:29.771Z,99800.31
2022-09-23T13:56:59.266Z,99759.69
2022-09-23T13:59:28.447Z,99829.56
2022-09-23T14:02:06.439Z,99820.47
2022-09-23T14:04:34.206Z,99744.63
2022-09-23T14:07:02.886Z,99755.13
2022-09-23T14:09:32.278Z,99754.56
2022-09-23T14:12:02.673Z,99829.56
2022-09-23T14:14:31.267Z,99819.78
2022-09-23T14:17:00.136Z,99801.31
2022-09-23T14:19:27.837Z,99798.91
2022-09-23T14:21:56.906Z,99835.25
2022-09-23T14:24:26.973Z,99822.75
2022-09-23T14:26:59.610Z,99798.16
2022-09-23T14:29:32.197Z,99791.94
2022-09-23T14:32:03.690Z,99753.84
2022-09-23T14:34:46.601Z,99780.41
2022-09-23T14:37:48.758Z,99797.00
2022-09-23T14:40:19.328Z,99779.88
2022-09-23T14:42:52.067Z,99809.94
2022-09-23T14:45:25.128Z,99840.56
2022-09-23T14:47:57.826Z,99804.38
2022-09-23T14:50:47.440Z,99852.16
2022-09-23T14:53:37.328Z,99841.66
2022-09-23T14:56:17.092Z,99857.56
2022-09-23T14:58:52.555Z,99828.91
2022-09-23T15:01:39.607Z,99844.38
2022-09-23T15:04:13.092Z,99853.88
2022-09-23T15:06:44.665Z,99878.16
2022-09-23T15:09:20.961Z,99933.09
2022-09-23T15:11:48.617Z,99897.56
2022-09-23T15:14:36.663Z,99907.09
2022-09-23T15:17:09.428Z,99931.56
2022-09-23T15:19:38.659Z,99925.03
2022-09-23T15:22:09.950Z,99892.50
2022-09-23T15:24:46.123Z,99928.78
2022-09-23T15:27:31.134Z,99908.19
2022-09-23T15:30:15.341Z,99877.50
2022-09-23T15:32:45.589Z,99902.72
2022-09-23T15:35:15.585Z,99931.66
2022-09-23T15:37:43.433Z,99891.06
2022-09-23T15:40:21.368Z,99935.66
2022-09-23T15:42:51.431Z,99937.88
2022-09-23T15:45:20.982Z,99943.56
2022-09-23T15:47:52.293Z,99998.03
2022-09-23T15:50:20.428Z,99986.19
2022-09-23T15:52:47.982Z,99979.81
2022-09-23T15:55:17.815Z,99989.13
2022-09-23T15:57:45.415Z,99978.34
2022-09-23T16:00:14.788Z,100000.88
2022-09-23T16:02:43.258Z,100008.97
2022-09-23T16:05:21.137Z,100027.81
2022-09-23T16:07:52.278Z,100018.84
2022-09-23T16:10:22.416Z,100058.19
2022-09-23T16:12:50.467Z,100076.28
2022-09-23T16:15:20.440Z,100074.56
2022-09-23T16:17:48.595Z,100051.72
2022-09-23T16:20:18.398Z,100042.03
2022-09-23T16:22:53.348Z,100057.69
2022-09-23T16:25:22.629Z,100078.03
2022-09-23T16:27:50.380Z,100083.44
2022-09-23T16:30:18.242Z,100129.69
2022-09-23T16:32:45.764Z,100181.09
2022-09-23T16:35:13.344Z,100214.97
2022-09-23T16:37:46.844Z,100272.28
2022-09-23T16:40:16.586Z,100323.16
2022-09-23T16:42:46.469Z,100349.28
2022-09-23T16:45:16.912Z,100379.00
2022-09-23T16:47:46.167Z,100395.31
2022-09-23T16:50:14.901Z,100393.72
2022-09-23T16:52:45.019Z,100394.09
2022-09-23T16:55:14.445Z,100416.56
2022-09-23T16:57:42.542Z,100451.34
2022-09-23T17:00:31.555Z,100455.84
2022-09-23T17:03:16.891Z,100472.34
2022-09-23T17:05:46.798Z,100466.00
2022-09-23T17:08:17.744Z,100474.97
2022-09-23T17:10:55.241Z,100491.97
2022-09-23T17:13:22.773Z,100501.75
2022-09-23T17:15:50.501Z,100505.03
2022-09-23T17:18:19.610Z,100512.63
2022-09-23T17:20:57.540Z,100527.47
2022-09-23T17:23:27.422Z,100547.97
2022-09-23T17:25:55.084Z,100554.63
2022-09-23T17:28:23.004Z,100573.88
2022-09-23T17:30:52.417Z,100580.88
2022-09-23T17:33:22.352Z,100602.75
2022-09-23T17:35:49.867Z,100581.78
2022-09-23T17:38:17.418Z,100571.34
2022-09-23T17:40:52.099Z,100561.84
2022-09-23T17:43:24.946Z,100563.97
2022-09-23T17:45:52.954Z,100569.78
2022-09-23T17:48:21.456Z,100595.00
2022-09-23T17:50:56.329Z,100604.53
2022-09-23T17:53:24.547Z,100616.47
2022-09-23T17:55:57.652Z,100602.47
2022-09-23T17:58:26.525Z,100608.84
2022-09-23T18:01:05.469Z,100628.72
2022-09-23T18:03:33.340Z,100621.84
2022-09-23T18:06:10.304Z,100610.44
2022-09-23T18:08:38.448Z,100634.72
2022-09-23T18:11:18.721Z,100652.03
2022-09-23T18:13:51.040Z,100649.34
2022-09-23T18:16:19.360Z,100627.03
2022-09-23T18:18:51.846Z,100623.38
2022-09-23T18:21:20.490Z,100616.25
2022-09-23T18:23:48.055Z,100629.78
2022-09-23T18:26:18.090Z,100634.34
2022-09-23T18:28:45.680Z,100640.72
2022-09-23T18:31:13.410Z,100657.81
2022-09-23T18:33:41.525Z,100672.38
2022-09-23T18:36:10.534Z,100681.34
2022-09-23T18:38:38.065Z,100693.94
2022-09-23T18:41:07.216Z,100721.91
2022-09-23T18:43:41.340Z,100723.88
2022-09-23T18:46:12.999Z,100738.28
2022-09-23T18:48:58.460Z,100713.16
2022-09-23T18:51:29.009Z,100715.06
2022-09-23T18:53:58.556Z,100706.72
2022-09-23T18:59:35.181Z,100687.88
2022-09-23T19:02:09.224Z,100691.28
2022-09-23T19:04:44.507Z,100686.69
2022-09-23T19:07:19.799Z,100699.28
2022-09-23T19:10:01.551Z,100702.22
2022-09-23T19:12:41.688Z,100720.22
2022-09-23T19:15:28.959Z,100721.91
2022-09-23T19:18:36.108Z,100723.09
2022-09-23T19:21:13.522Z,100722.13
2022-09-23T19:27:33.484Z,100726.72
2022-09-23T19:30:32.911Z,100731.44
2022-09-23T19:33:40.712Z,100750.06
2022-09-23T19:36:52.540Z,100742.22
2022-09-23T19:39:35.221Z,100744.66
2022-09-23T19:42:18.850Z,100726.63
2022-09-23T19:44:48.345Z,100722.13
2022-09-23T19:47:41.520Z,100740.34
2022-09-23T19:50:15.901Z,100742.06
2022-09-23T19:53:53.275Z,100746.44
2022-09-23T19:59:53.825Z,100764.16
2022-09-23T20:05:28.608Z,100737.03
2022-09-23T20:08:12.966Z,100740.66
2022-09-23T20:14:05.694Z,100740.72
2022-09-23T20:16:45.728Z,100734.53
2022-09-23T20:19:51.866Z,100741.69
2022-09-23T20:23:02.621Z,100748.94
2022-09-23T20:28:36.988Z,100737.69
2022-09-23T20:35:18.969Z,100729.56
2022-09-23T20:38:19.514Z,100724.22
2022-09-23T20:40:55.932Z,100720.63
2022-09-23T20:43:24.299Z,100720.53
2022-09-23T20:45:53.011Z,100718.88
2022-09-23T20:48:21.036Z,100736.84
2022-09-23T20:51:06.951Z,100731.47
2022-09-23T20:53:40.798Z,100739.03
2022-09-23T20:56:08.776Z,100744.13
2022-09-23T20:58:37.304Z,100739.72
2022-09-23T21:01:07.988Z,100720.13
2022-09-23T21:03:35.849Z,100715.81
2022-09-23T21:06:04.550Z,100724.56
2022-09-23T21:08:33.371Z,100704.88
2022-09-23T21:11:03.830Z,100709.19
2022-09-23T21:13:32.948Z,100701.28
2022-09-23T21:16:03.871Z,100706.53
2022-09-23T21:18:31.752Z,100703.06
2022-09-23T21:21:00.561Z,100702.22
2022-09-23T21:23:30.199Z,100704.88
2022-09-23T21:26:02.850Z,100705.75
2022-09-23T21:28:31.948Z,100701.44
2022-09-23T21:31:00.676Z,100714.91
2022-09-23T21:33:28.414Z,100708.66
2022-09-23T21:35:56.507Z,100718.25
2022-09-23T21:38:24.221Z,100711.19
2022-09-23T21:40:58.703Z,100695.16
2022-09-23T21:43:29.565Z,100696.94
2022-09-23T21:45:58.883Z,100716.78
2022-09-23T21:48:28.769Z,100717.78
2022-09-23T21:51:01.335Z,100715.09
2022-09-23T21:53:31.038Z,100718.81
2022-09-23T21:56:03.506Z,100721.41
2022-09-23T21:58:34.475Z,100715.03
2022-09-23T22:01:02.465Z,100716.84
2022-09-23T22:03:30.199Z,100724.88
2022-09-23T22:06:03.517Z,100727.53
2022-09-23T22:08:36.862Z,100730.16
2022-09-23T22:11:29.549Z,100729.25
2022-09-23T22:13:58.690Z,100722.13
2022-09-23T22:16:28.237Z,100717.63
2022-09-23T22:18:57.239Z,100709.63
2022-09-23T22:21:27.590Z,100721.09
2022-09-23T22:23:56.978Z,100714.00
2022-09-23T22:26:25.446Z,100712.28
2022-09-23T22:29:10.740Z,100712.28
2022-09-23T22:31:57.366Z,100712.28
2022-09-23T22:34:48.368Z,100703.50
2022-09-23T22:37:17.761Z,100711.44
2022-09-23T22:39:46.143Z,100714.19
2022-09-23T22:42:14.397Z,100717.63
2022-09-23T22:44:42.077Z,100710.31
2022-09-23T22:47:11.780Z,100703.25
2022-09-23T22:49:39.303Z,100707.63
2022-09-23T22:52:09.040Z,100716.28
2022-09-23T22:54:36.951Z,100693.94
2022-09-23T22:57:05.138Z,100689.56
2022-09-23T22:59:32.681Z,100693.09
2022-09-23T23:02:02.418Z,100701.91
2022-09-23T23:04:31.667Z,100687.75
2022-09-23T23:06:59.524Z,100700.25
2022-09-23T23:09:27.377Z,100710.78
2022-09-23T23:11:54.929Z,100701.66
2022-09-23T23:14:22.639Z,100690.09
2022-09-23T23:16:50.666Z,100692.66
2022-09-23T23:19:19.068Z,100687.56
2022-09-23T23:21:48.061Z,100688.53
2022-09-23T23:24:17.877Z,100688.59
2022-09-23T23:26:45.942Z,100696.72
2022-09-23T23:29:15.687Z,100697.66
2022-09-23T23:31:43.719Z,100697.72
2022-09-23T23:34:13.632Z,100702.81
2022-09-23T23:36:41.608Z,100700.09
2022-09-23T23:39:11.419Z,100696.56
2022-09-23T23:41:39.652Z,100697.47
2022-09-23T23:44:07.777Z,100701.97
2022-09-23T23:46:37.428Z,100703.47
2022-09-23T23:49:06.851Z,100691.03
2022-09-23T23:51:34.398Z,100695.28
2022-09-23T23:54:02.165Z,100689.84
2022-09-23T23:56:32.044Z,100691.50
2022-09-23T23:59:02.352Z,100685.09
